createdAt,value
2018-03-15T00:00:16.321Z,0
2018-03-15T00:01:16.570Z,0
2018-03-15T00:02:16.576Z,0
2018-03-15T00:03:16.021Z,0
2018-03-15T00:04:16.041Z,0
2018-03-15T00:05:16.622Z,0
2018-03-15T00:06:16.346Z,0
2018-03-15T00:07:16.115Z,0
2018-03-15T00:08:16.032Z,0
2018-03-15T00:09:16.382Z,0
2018-03-15T00:10:16.734Z,0
2018-03-15T00:11:16.408Z,0
2018-03-15T00:12:16.716Z,0
2018-03-15T00:13:16.732Z,0
2018-03-15T00:14:16.452Z,0
2018-03-15T00:15:16.236Z,0
2018-03-15T00:16:16.485Z,0
2018-03-15T00:17:16.782Z,0
2018-03-15T00:18:16.505Z,0
2018-03-15T00:19:16.526Z,0
2018-03-15T00:20:16.580Z,0
2018-03-15T00:21:16.888Z,0
2018-03-15T00:22:16.555Z,0
2018-03-15T00:23:16.584Z,0
2018-03-15T00:24:16.016Z,0
2018-03-15T00:25:16.316Z,0
2018-03-15T00:26:16.899Z,0
2018-03-15T00:27:16.056Z,0
2018-03-15T00:28:16.917Z,0
2018-03-15T00:29:16.656Z,0
2018-03-15T00:30:16.666Z,0
2018-03-15T00:31:16.395Z,0
2018-03-15T00:32:16.688Z,0
2018-03-15T00:33:16.423Z,0
2018-03-15T00:34:17.002Z,0
2018-03-15T00:35:17.021Z,0
2018-03-15T00:36:17.027Z,0
2018-03-15T00:37:17.040Z,0
2018-03-15T00:38:16.491Z,0
2018-03-15T00:39:17.068Z,0
2018-03-15T00:40:16.516Z,0
2018-03-15T00:41:17.145Z,0
2018-03-15T00:42:16.537Z,0
2018-03-15T00:43:16.833Z,0
2018-03-15T00:44:17.142Z,0
2018-03-15T00:45:16.862Z,0
2018-03-15T00:46:16.598Z,0
2018-03-15T00:47:16.602Z,0
2018-03-15T00:48:16.908Z,0
2018-03-15T00:49:16.676Z,0
2018-03-15T00:50:16.924Z,0
2018-03-15T00:51:17.027Z,0
2018-03-15T00:52:17.249Z,0
2018-03-15T00:53:17.304Z,0
2018-03-15T00:54:17.268Z,0
2018-03-15T00:55:17.289Z,0
2018-03-15T00:56:17.019Z,0
2018-03-15T00:57:17.426Z,0
2018-03-15T00:58:17.030Z,0
2018-03-15T00:59:17.047Z,0
2018-03-15T01:00:17.349Z,0
2018-03-15T01:01:17.522Z,0
2018-03-15T01:02:17.092Z,0
2018-03-15T01:03:17.129Z,0
2018-03-15T01:04:16.833Z,0
2018-03-15T01:05:17.407Z,0
2018-03-15T01:06:17.135Z,0
2018-03-15T01:07:17.155Z,0
2018-03-15T01:08:17.460Z,0
2018-03-15T01:09:17.175Z,0
2018-03-15T01:10:17.474Z,0
2018-03-15T01:11:16.920Z,0
2018-03-15T01:12:17.216Z,0
2018-03-15T01:13:16.946Z,0
2018-03-15T01:14:17.238Z,0
2018-03-15T01:15:17.545Z,0
2018-03-15T01:16:17.270Z,0
2018-03-15T01:17:17.290Z,0
2018-03-15T01:18:17.293Z,0
2018-03-15T01:19:17.306Z,0
2018-03-15T01:20:17.323Z,0
2018-03-15T01:21:17.625Z,0
2018-03-15T01:22:17.358Z,0
2018-03-15T01:23:17.379Z,0
2018-03-15T01:24:17.385Z,0
2018-03-15T01:25:17.403Z,0
2018-03-15T01:26:17.685Z,0
2018-03-15T01:27:17.705Z,0
2018-03-15T01:28:17.715Z,0
2018-03-15T01:29:17.437Z,0
2018-03-15T01:30:17.756Z,0
2018-03-15T01:31:17.183Z,0
2018-03-15T01:32:17.200Z,0
2018-03-15T01:33:17.779Z,0
2018-03-15T01:34:17.230Z,0
2018-03-15T01:35:17.516Z,0
2018-03-15T01:36:17.535Z,0
2018-03-15T01:37:17.825Z,0
2018-03-15T01:38:17.559Z,0
2018-03-15T01:39:17.290Z,0
2018-03-15T01:40:17.304Z,0
2018-03-15T01:41:17.385Z,0
2018-03-15T01:42:17.621Z,0
2018-03-15T01:43:17.625Z,0
2018-03-15T01:44:17.074Z,0
2018-03-15T01:45:17.649Z,0
2018-03-15T01:46:17.098Z,0
2018-03-15T01:47:17.675Z,0
2018-03-15T01:48:17.420Z,0
2018-03-15T01:49:17.987Z,0
2018-03-15T01:50:18.002Z,0
2018-03-15T01:51:18.013Z,0
2018-03-15T01:52:17.455Z,0
2018-03-15T01:53:17.760Z,0
2018-03-15T01:54:18.051Z,0
2018-03-15T01:55:18.069Z,0
2018-03-15T01:56:18.075Z,0
2018-03-15T01:57:18.089Z,0
2018-03-15T01:58:18.106Z,0
2018-03-15T01:59:17.832Z,0
2018-03-15T02:00:17.898Z,0
2018-03-15T02:01:17.861Z,0
2018-03-15T02:02:17.891Z,0
2018-03-15T02:03:17.933Z,0
2018-03-15T02:04:17.899Z,0
2018-03-15T02:05:17.911Z,0
2018-03-15T02:06:17.650Z,0
2018-03-15T02:07:17.676Z,0
2018-03-15T02:08:17.951Z,0
2018-03-15T02:09:18.249Z,0
2018-03-15T02:10:18.276Z,0
2018-03-15T02:11:18.274Z,0
2018-03-15T02:12:18.001Z,0
2018-03-15T02:13:18.022Z,0
2018-03-15T02:14:18.031Z,0
2018-03-15T02:15:18.043Z,0
2018-03-15T02:16:18.343Z,0
2018-03-15T02:17:18.356Z,0
2018-03-15T02:18:18.386Z,0
2018-03-15T02:19:18.098Z,0
2018-03-15T02:20:17.835Z,0
2018-03-15T02:21:17.835Z,0
2018-03-15T02:22:18.471Z,0
2018-03-15T02:23:18.429Z,0
2018-03-15T02:24:18.161Z,0
2018-03-15T02:25:17.944Z,0
2018-03-15T02:26:18.186Z,0
2018-03-15T02:27:18.200Z,0
2018-03-15T02:28:18.510Z,0
2018-03-15T02:29:18.517Z,0
2018-03-15T02:30:18.525Z,0
2018-03-15T02:31:18.538Z,0
2018-03-15T02:32:18.545Z,0
2018-03-15T02:33:18.564Z,0
2018-03-15T02:34:18.297Z,0
2018-03-15T02:35:18.592Z,0
2018-03-15T02:36:18.312Z,0
2018-03-15T02:37:18.383Z,0
2018-03-15T02:38:18.355Z,0
2018-03-15T02:39:18.355Z,0
2018-03-15T02:40:18.370Z,0
2018-03-15T02:41:18.666Z,0
2018-03-15T02:42:18.692Z,0
2018-03-15T02:43:18.409Z,0
2018-03-15T02:44:18.696Z,0
2018-03-15T02:45:18.719Z,0
2018-03-15T02:46:18.458Z,0
2018-03-15T02:47:18.762Z,0
2018-03-15T02:48:18.749Z,0
2018-03-15T02:49:18.546Z,0
2018-03-15T02:50:18.792Z,0
2018-03-15T02:51:18.514Z,0
2018-03-15T02:52:18.235Z,0
2018-03-15T02:53:18.531Z,0
2018-03-15T02:54:18.820Z,0
2018-03-15T02:55:18.569Z,0
2018-03-15T02:56:18.567Z,0
2018-03-15T02:57:18.588Z,0
2018-03-15T02:58:18.891Z,0
2018-03-15T02:59:18.321Z,0
2018-03-15T03:00:18.915Z,0
2018-03-15T03:01:18.995Z,0
2018-03-15T03:02:18.650Z,0
2018-03-15T03:03:18.661Z,0
2018-03-15T03:04:18.717Z,0
2018-03-15T03:05:18.974Z,0
2018-03-15T03:06:18.413Z,0
2018-03-15T03:07:18.706Z,0
2018-03-15T03:08:19.007Z,0
2018-03-15T03:09:18.809Z,0
2018-03-15T03:10:19.029Z,0
2018-03-15T03:11:18.757Z,0
2018-03-15T03:12:19.059Z,0
2018-03-15T03:13:19.066Z,0
2018-03-15T03:14:19.073Z,0
2018-03-15T03:15:18.804Z,0
2018-03-15T03:16:19.101Z,0
2018-03-15T03:17:19.115Z,0
2018-03-15T03:18:18.850Z,0
2018-03-15T03:19:18.866Z,0
2018-03-15T03:20:18.872Z,0
2018-03-15T03:21:19.167Z,0
2018-03-15T03:22:19.175Z,0
2018-03-15T03:23:19.205Z,0
2018-03-15T03:24:19.201Z,0
2018-03-15T03:25:19.430Z,0
2018-03-15T03:26:18.955Z,0
2018-03-15T03:27:19.243Z,0
2018-03-15T03:28:19.055Z,0
2018-03-15T03:29:19.263Z,0
2018-03-15T03:30:19.292Z,0
2018-03-15T03:31:19.014Z,0
2018-03-15T03:32:19.028Z,0
2018-03-15T03:33:19.321Z,0
2018-03-15T03:34:19.042Z,0
2018-03-15T03:35:19.340Z,0
2018-03-15T03:36:19.351Z,0
2018-03-15T03:37:19.087Z,0
2018-03-15T03:38:18.811Z,0
2018-03-15T03:39:19.104Z,0
2018-03-15T03:40:18.836Z,0
2018-03-15T03:41:19.134Z,0
2018-03-15T03:42:19.147Z,0
2018-03-15T03:43:19.449Z,0
2018-03-15T03:44:19.448Z,0
2018-03-15T03:45:19.462Z,0
2018-03-15T03:46:19.473Z,0
2018-03-15T03:47:19.485Z,0
2018-03-15T03:48:19.548Z,0
2018-03-15T03:49:18.946Z,0
2018-03-15T03:50:19.529Z,0
2018-03-15T03:51:19.249Z,0
2018-03-15T03:52:19.567Z,0
2018-03-15T03:53:19.335Z,0
2018-03-15T03:54:19.289Z,0
2018-03-15T03:55:19.586Z,0
2018-03-15T03:56:19.597Z,0
2018-03-15T03:57:19.610Z,0
2018-03-15T03:58:19.334Z,0
2018-03-15T03:59:19.075Z,0
2018-03-15T04:00:19.643Z,0
2018-03-15T04:01:19.652Z,0
2018-03-15T04:02:19.666Z,0
2018-03-15T04:03:19.768Z,0
2018-03-15T04:04:19.418Z,0
2018-03-15T04:05:19.711Z,0
2018-03-15T04:06:19.726Z,0
2018-03-15T04:07:19.460Z,0
2018-03-15T04:08:19.181Z,0
2018-03-15T04:09:19.478Z,0
2018-03-15T04:10:19.766Z,0
2018-03-15T04:11:19.217Z,0
2018-03-15T04:12:19.514Z,0
2018-03-15T04:13:19.571Z,0
2018-03-15T04:14:19.821Z,0
2018-03-15T04:15:19.828Z,0
2018-03-15T04:16:19.906Z,0
2018-03-15T04:17:19.568Z,0
2018-03-15T04:18:19.970Z,0
2018-03-15T04:19:19.620Z,0
2018-03-15T04:20:19.041Z,0
2018-03-15T04:21:19.961Z,0
2018-03-15T04:22:19.927Z,0
2018-03-15T04:23:20.001Z,0
2018-03-15T04:24:19.941Z,0
2018-03-15T04:25:19.964Z,0
2018-03-15T04:26:19.965Z,0
2018-03-15T04:27:20.044Z,0
2018-03-15T04:28:20.056Z,0
2018-03-15T04:29:19.999Z,0
2018-03-15T04:30:20.012Z,0
2018-03-15T04:31:20.029Z,0
2018-03-15T04:32:19.477Z,0
2018-03-15T04:33:20.098Z,0
2018-03-15T04:34:20.057Z,0
2018-03-15T04:35:20.071Z,0
2018-03-15T04:36:19.802Z,0
2018-03-15T04:37:20.100Z,0
2018-03-15T04:38:20.120Z,0
2018-03-15T04:39:20.132Z,0
2018-03-15T04:40:19.854Z,0
2018-03-15T04:41:19.864Z,0
2018-03-15T04:42:19.880Z,0
2018-03-15T04:43:20.223Z,0
2018-03-15T04:44:19.894Z,0
2018-03-15T04:45:19.909Z,0
2018-03-15T04:46:19.640Z,0
2018-03-15T04:47:19.366Z,0
2018-03-15T04:48:19.942Z,0
2018-03-15T04:49:19.677Z,0
2018-03-15T04:50:20.254Z,0
2018-03-15T04:51:20.298Z,0
2018-03-15T04:52:20.283Z,0
2018-03-15T04:53:20.294Z,0
2018-03-15T04:54:20.301Z,0
2018-03-15T04:55:20.317Z,0
2018-03-15T04:56:19.765Z,0
2018-03-15T04:57:20.052Z,0
2018-03-15T04:58:20.064Z,0
2018-03-15T04:59:20.081Z,0
2018-03-15T05:00:20.373Z,0
2018-03-15T05:01:20.100Z,0
2018-03-15T05:02:20.397Z,0
2018-03-15T05:03:20.409Z,0
2018-03-15T05:04:19.853Z,0
2018-03-15T05:05:20.148Z,4
2018-03-15T05:06:20.164Z,0
2018-03-15T05:07:20.468Z,0
2018-03-15T05:08:20.180Z,0
2018-03-15T05:09:20.278Z,4
2018-03-15T05:10:20.212Z,4
2018-03-15T05:11:20.222Z,4
2018-03-15T05:12:20.236Z,8
2018-03-15T05:13:20.533Z,8
2018-03-15T05:14:20.312Z,4
2018-03-15T05:15:20.265Z,8
2018-03-15T05:16:20.279Z,8
2018-03-15T05:17:20.293Z,8
2018-03-15T05:18:20.324Z,12
2018-03-15T05:19:20.313Z,8
2018-03-15T05:20:20.330Z,12
2018-03-15T05:21:20.066Z,16
2018-03-15T05:22:20.352Z,20
2018-03-15T05:23:20.647Z,20
2018-03-15T05:24:20.405Z,20
2018-03-15T05:25:20.718Z,24
2018-03-15T05:26:20.402Z,24
2018-03-15T05:27:20.411Z,28
2018-03-15T05:28:20.424Z,32
2018-03-15T05:29:20.153Z,36
2018-03-15T05:30:20.452Z,40
2018-03-15T05:31:20.495Z,40
2018-03-15T05:32:20.186Z,44
2018-03-15T05:33:20.499Z,48
2018-03-15T05:34:20.498Z,52
2018-03-15T05:35:20.227Z,56
2018-03-15T05:36:20.239Z,60
2018-03-15T05:37:20.942Z,60
2018-03-15T05:38:20.550Z,64
2018-03-15T05:39:20.557Z,72
2018-03-15T05:40:20.855Z,72
2018-03-15T05:41:20.863Z,76
2018-03-15T05:42:20.595Z,80
2018-03-15T05:43:20.604Z,80
2018-03-15T05:44:20.617Z,84
2018-03-15T05:45:20.625Z,92
2018-03-15T05:46:20.355Z,100
2018-03-15T05:47:20.085Z,108
2018-03-15T05:48:20.667Z,108
2018-03-15T05:49:21.008Z,108
2018-03-15T05:50:20.687Z,124
2018-03-15T05:51:20.995Z,132
2018-03-15T05:52:20.428Z,136
2018-03-15T05:53:20.722Z,136
2018-03-15T05:54:21.070Z,156
2018-03-15T05:55:21.028Z,152
2018-03-15T05:56:20.480Z,160
2018-03-15T05:57:20.773Z,140
2018-03-15T05:58:20.500Z,156
2018-03-15T05:59:20.798Z,168
2018-03-15T06:00:20.522Z,172
2018-03-15T06:01:21.098Z,172
2018-03-15T06:02:20.834Z,156
2018-03-15T06:03:21.118Z,176
2018-03-15T06:04:20.904Z,192
2018-03-15T06:05:20.867Z,188
2018-03-15T06:06:20.877Z,204
2018-03-15T06:07:20.886Z,200
2018-03-15T06:08:21.189Z,212
2018-03-15T06:09:20.912Z,228
2018-03-15T06:10:20.361Z,244
2018-03-15T06:11:21.240Z,236
2018-03-15T06:12:20.946Z,228
2018-03-15T06:13:20.960Z,224
2018-03-15T06:14:21.322Z,252
2018-03-15T06:15:20.981Z,244
2018-03-15T06:16:21.278Z,252
2018-03-15T06:17:21.342Z,256
2018-03-15T06:18:21.310Z,304
2018-03-15T06:19:21.188Z,304
2018-03-15T06:20:21.046Z,312
2018-03-15T06:21:21.057Z,320
2018-03-15T06:22:21.345Z,344
2018-03-15T06:23:21.362Z,324
2018-03-15T06:24:21.089Z,308
2018-03-15T06:25:21.105Z,316
2018-03-15T06:26:21.407Z,320
2018-03-15T06:27:21.410Z,328
2018-03-15T06:28:21.136Z,304
2018-03-15T06:29:20.866Z,308
2018-03-15T06:30:21.172Z,312
2018-03-15T06:31:21.176Z,392
2018-03-15T06:32:21.183Z,328
2018-03-15T06:33:20.930Z,348
2018-03-15T06:34:21.214Z,400
2018-03-15T06:35:21.501Z,416
2018-03-15T06:36:21.555Z,356
2018-03-15T06:37:21.538Z,400
2018-03-15T06:38:21.548Z,384
2018-03-15T06:39:21.602Z,404
2018-03-15T06:40:20.997Z,388
2018-03-15T06:41:21.581Z,400
2018-03-15T06:42:21.312Z,372
2018-03-15T06:43:21.319Z,276
2018-03-15T06:44:21.667Z,272
2018-03-15T06:45:21.339Z,280
2018-03-15T06:46:21.073Z,268
2018-03-15T06:47:21.649Z,320
2018-03-15T06:48:21.379Z,352
2018-03-15T06:49:21.680Z,344
2018-03-15T06:50:21.415Z,336
2018-03-15T06:51:21.703Z,400
2018-03-15T06:52:21.427Z,440
2018-03-15T06:53:21.440Z,340
2018-03-15T06:54:21.754Z,312
2018-03-15T06:55:21.744Z,480
2018-03-15T06:56:21.476Z,356
2018-03-15T06:57:21.485Z,320
2018-03-15T06:58:21.497Z,404
2018-03-15T06:59:21.806Z,472
2018-03-15T07:00:21.521Z,420
2018-03-15T07:01:21.256Z,368
2018-03-15T07:02:21.548Z,388
2018-03-15T07:03:21.558Z,396
2018-03-15T07:04:21.864Z,428
2018-03-15T07:05:21.866Z,392
2018-03-15T07:06:21.315Z,452
2018-03-15T07:07:21.608Z,420
2018-03-15T07:08:21.624Z,400
2018-03-15T07:09:21.350Z,432
2018-03-15T07:10:21.770Z,600
2018-03-15T07:11:21.086Z,500
2018-03-15T07:12:21.673Z,896
2018-03-15T07:13:21.686Z,632
2018-03-15T07:14:21.688Z,636
2018-03-15T07:15:21.704Z,492
2018-03-15T07:16:22.003Z,820
2018-03-15T07:17:22.027Z,636
2018-03-15T07:18:21.457Z,428
2018-03-15T07:19:22.045Z,680
2018-03-15T07:20:22.106Z,720
2018-03-15T07:21:21.494Z,888
2018-03-15T07:22:22.073Z,716
2018-03-15T07:23:22.080Z,720
2018-03-15T07:24:22.094Z,500
2018-03-15T07:25:21.546Z,364
2018-03-15T07:26:21.831Z,356
2018-03-15T07:27:22.136Z,356
2018-03-15T07:28:22.150Z,396
2018-03-15T07:29:21.873Z,476
2018-03-15T07:30:21.897Z,544
2018-03-15T07:31:21.891Z,460
2018-03-15T07:32:21.961Z,476
2018-03-15T07:33:21.923Z,616
2018-03-15T07:34:21.934Z,576
2018-03-15T07:35:21.662Z,872
2018-03-15T07:36:21.952Z,608
2018-03-15T07:37:22.251Z,528
2018-03-15T07:38:21.700Z,516
2018-03-15T07:39:22.498Z,568
2018-03-15T07:40:22.024Z,552
2018-03-15T07:41:22.298Z,528
2018-03-15T07:42:22.045Z,824
2018-03-15T07:43:22.045Z,480
2018-03-15T07:44:22.349Z,1060
2018-03-15T07:45:22.369Z,404
2018-03-15T07:46:22.081Z,596
2018-03-15T07:47:22.129Z,684
2018-03-15T07:48:22.108Z,472
2018-03-15T07:49:21.837Z,908
2018-03-15T07:50:22.127Z,752
2018-03-15T07:51:22.191Z,624
2018-03-15T07:52:22.442Z,692
2018-03-15T07:53:21.885Z,480
2018-03-15T07:54:22.175Z,1384
2018-03-15T07:55:22.473Z,836
2018-03-15T07:56:22.202Z,556
2018-03-15T07:57:22.516Z,560
2018-03-15T07:58:22.231Z,448
2018-03-15T07:59:22.251Z,424
2018-03-15T08:00:22.261Z,408
2018-03-15T08:01:22.271Z,412
2018-03-15T08:02:22.570Z,548
2018-03-15T08:03:22.293Z,596
2018-03-15T08:04:22.311Z,496
2018-03-15T08:05:22.398Z,1172
2018-03-15T08:06:22.621Z,1152
2018-03-15T08:07:22.885Z,768
2018-03-15T08:08:22.662Z,1272
2018-03-15T08:09:22.370Z,736
2018-03-15T08:10:22.388Z,1232
2018-03-15T08:11:22.400Z,956
2018-03-15T08:12:22.407Z,1028
2018-03-15T08:13:22.419Z,912
2018-03-15T08:14:22.473Z,884
2018-03-15T08:15:22.445Z,984
2018-03-15T08:16:22.462Z,884
2018-03-15T08:17:22.754Z,872
2018-03-15T08:18:22.762Z,1012
2018-03-15T08:19:22.784Z,1428
2018-03-15T08:20:22.839Z,1004
2018-03-15T08:21:22.245Z,1604
2018-03-15T08:22:22.535Z,1400
2018-03-15T08:23:22.838Z,1408
2018-03-15T08:24:23.018Z,1116
2018-03-15T08:25:22.903Z,1016
2018-03-15T08:26:22.304Z,1480
2018-03-15T08:27:22.883Z,1392
2018-03-15T08:28:22.901Z,1120
2018-03-15T08:29:22.629Z,1208
2018-03-15T08:30:22.642Z,1192
2018-03-15T08:31:22.937Z,940
2018-03-15T08:32:22.949Z,1316
2018-03-15T08:33:22.443Z,1308
2018-03-15T08:34:22.972Z,1260
2018-03-15T08:35:23.037Z,952
2018-03-15T08:36:22.722Z,648
2018-03-15T08:37:23.022Z,484
2018-03-15T08:38:23.028Z,520
2018-03-15T08:39:22.762Z,724
2018-03-15T08:40:22.773Z,620
2018-03-15T08:41:23.144Z,608
2018-03-15T08:42:22.519Z,752
2018-03-15T08:43:22.818Z,556
2018-03-15T08:44:23.109Z,528
2018-03-15T08:45:23.123Z,564
2018-03-15T08:46:23.207Z,468
2018-03-15T08:47:22.863Z,516
2018-03-15T08:48:23.183Z,516
2018-03-15T08:49:23.174Z,512
2018-03-15T08:50:23.239Z,628
2018-03-15T08:51:22.920Z,532
2018-03-15T08:52:23.347Z,492
2018-03-15T08:53:22.733Z,508
2018-03-15T08:54:23.243Z,628
2018-03-15T08:55:22.972Z,520
2018-03-15T08:56:23.333Z,540
2018-03-15T08:57:23.462Z,564
2018-03-15T08:58:23.438Z,664
2018-03-15T08:59:22.739Z,564
2018-03-15T09:00:23.133Z,628
2018-03-15T09:01:23.341Z,508
2018-03-15T09:02:23.350Z,516
2018-03-15T09:03:23.368Z,520
2018-03-15T09:04:23.222Z,516
2018-03-15T09:05:23.104Z,956
2018-03-15T09:06:23.015Z,1008
2018-03-15T09:07:23.525Z,1008
2018-03-15T09:08:23.160Z,532
2018-03-15T09:09:23.187Z,488
2018-03-15T09:10:22.885Z,480
2018-03-15T09:11:23.466Z,508
2018-03-15T09:12:23.484Z,484
2018-03-15T09:13:23.500Z,480
2018-03-15T09:14:23.519Z,532
2018-03-15T09:15:23.515Z,572
2018-03-15T09:16:23.534Z,512
2018-03-15T09:17:23.554Z,588
2018-03-15T09:18:23.631Z,568
2018-03-15T09:19:23.571Z,556
2018-03-15T09:20:23.308Z,568
2018-03-15T09:21:23.323Z,552
2018-03-15T09:22:23.613Z,568
2018-03-15T09:23:23.354Z,584
2018-03-15T09:24:23.078Z,500
2018-03-15T09:25:23.376Z,840
2018-03-15T09:26:23.678Z,536
2018-03-15T09:27:23.685Z,520
2018-03-15T09:28:23.705Z,536
2018-03-15T09:29:23.431Z,524
2018-03-15T09:30:25.428Z,528
2018-03-15T09:31:23.790Z,536
2018-03-15T09:32:23.507Z,536
2018-03-15T09:33:23.515Z,528
2018-03-15T09:34:24.006Z,520
2018-03-15T09:35:23.547Z,508
2018-03-15T09:36:23.871Z,528
2018-03-15T09:37:24.686Z,532
2018-03-15T09:38:24.773Z,540
2018-03-15T09:39:23.926Z,556
2018-03-15T09:40:23.599Z,552
2018-03-15T09:41:23.326Z,552
2018-03-15T09:42:24.037Z,580
2018-03-15T09:43:24.002Z,568
2018-03-15T09:44:24.002Z,592
2018-03-15T09:45:24.831Z,576
2018-03-15T09:46:23.932Z,576
2018-03-15T09:47:23.730Z,592
2018-03-15T09:48:24.046Z,588
2018-03-15T09:49:24.077Z,580
2018-03-15T09:50:23.751Z,596
2018-03-15T09:51:24.144Z,608
2018-03-15T09:52:24.164Z,588
2018-03-15T09:53:25.605Z,604
2018-03-15T09:54:23.830Z,608
2018-03-15T09:55:24.278Z,580
2018-03-15T09:56:24.135Z,640
2018-03-15T09:57:23.847Z,648
2018-03-15T09:58:23.863Z,636
2018-03-15T09:59:24.206Z,628
2018-03-15T10:00:24.687Z,664
2018-03-15T10:01:24.234Z,668
2018-03-15T10:02:23.628Z,676
2018-03-15T10:03:23.343Z,672
2018-03-15T10:04:23.943Z,688
2018-03-15T10:05:23.666Z,676
2018-03-15T10:06:24.286Z,660
2018-03-15T10:07:23.979Z,672
2018-03-15T10:08:25.814Z,688
2018-03-15T10:09:24.024Z,696
2018-03-15T10:10:24.042Z,688
2018-03-15T10:11:24.403Z,700
2018-03-15T10:12:24.082Z,724
2018-03-15T10:13:24.170Z,720
2018-03-15T10:14:24.113Z,688
2018-03-15T10:15:26.252Z,652
2018-03-15T10:16:24.556Z,776
2018-03-15T10:17:24.432Z,880
2018-03-15T10:18:23.864Z,788
2018-03-15T10:19:24.463Z,784
2018-03-15T10:20:23.589Z,796
2018-03-15T10:21:24.549Z,832
2018-03-15T10:22:24.693Z,832
2018-03-15T10:23:24.826Z,1000
2018-03-15T10:24:23.943Z,664
2018-03-15T10:25:34.489Z,860
2018-03-15T10:26:24.286Z,936
2018-03-15T10:27:24.305Z,940
2018-03-15T10:28:24.368Z,876
2018-03-15T10:29:24.364Z,712
2018-03-15T10:30:26.761Z,664
2018-03-15T10:31:24.398Z,936
2018-03-15T10:32:24.378Z,912
2018-03-15T10:33:24.747Z,1128
2018-03-15T10:34:24.433Z,1416
2018-03-15T10:35:24.704Z,1068
2018-03-15T10:36:24.737Z,1672
2018-03-15T10:37:25.279Z,1824
2018-03-15T10:38:24.937Z,2432
2018-03-15T10:39:24.179Z,1468
2018-03-15T10:40:24.196Z,1000
2018-03-15T10:41:24.493Z,856
2018-03-15T10:42:24.577Z,860
2018-03-15T10:43:24.840Z,784
2018-03-15T10:44:24.858Z,1040
2018-03-15T10:45:26.004Z,1664
2018-03-15T10:46:24.609Z,1896
2018-03-15T10:47:24.332Z,892
2018-03-15T10:48:24.600Z,1044
2018-03-15T10:49:25.029Z,1128
2018-03-15T10:50:24.642Z,884
2018-03-15T10:51:24.365Z,1016
2018-03-15T10:52:24.079Z,704
2018-03-15T10:53:26.417Z,712
2018-03-15T10:54:24.703Z,1088
2018-03-15T10:55:25.006Z,1036
2018-03-15T10:56:25.040Z,1144
2018-03-15T10:57:24.743Z,752
2018-03-15T10:58:25.065Z,800
2018-03-15T10:59:24.818Z,1076
2018-03-15T11:00:24.807Z,812
2018-03-15T11:01:25.790Z,1088
2018-03-15T11:02:24.831Z,1144
2018-03-15T11:03:24.847Z,1220
2018-03-15T11:04:24.861Z,1056
2018-03-15T11:05:24.895Z,1048
2018-03-15T11:06:24.897Z,1056
2018-03-15T11:07:24.613Z,1064
2018-03-15T11:08:26.004Z,1100
2018-03-15T11:09:25.795Z,1132
2018-03-15T11:10:24.377Z,1108
2018-03-15T11:11:25.280Z,1892
2018-03-15T11:12:25.016Z,1492
2018-03-15T11:13:25.325Z,1808
2018-03-15T11:14:25.023Z,1320
2018-03-15T11:15:25.127Z,1756
2018-03-15T11:16:26.712Z,2040
2018-03-15T11:17:25.436Z,1952
2018-03-15T11:18:25.400Z,1572
2018-03-15T11:19:25.112Z,1408
2018-03-15T11:20:25.136Z,1420
2018-03-15T11:21:25.460Z,1324
2018-03-15T11:22:25.203Z,1460
2018-03-15T11:23:25.176Z,1336
2018-03-15T11:24:26.827Z,1572
2018-03-15T11:25:25.215Z,1964
2018-03-15T11:26:25.225Z,2252
2018-03-15T11:27:25.287Z,2140
2018-03-15T11:28:25.247Z,2584
2018-03-15T11:29:24.971Z,3012
2018-03-15T11:30:25.298Z,2876
2018-03-15T11:31:25.588Z,1968
2018-03-15T11:32:27.010Z,1928
2018-03-15T11:33:25.348Z,1048
2018-03-15T11:34:25.402Z,1544
2018-03-15T11:35:25.390Z,1876
2018-03-15T11:36:25.701Z,2372
2018-03-15T11:37:25.771Z,2224
2018-03-15T11:38:25.729Z,1760
2018-03-15T11:39:26.017Z,1584
2018-03-15T11:40:26.337Z,1444
2018-03-15T11:41:25.176Z,1476
2018-03-15T11:42:25.860Z,1756
2018-03-15T11:43:25.592Z,2420
2018-03-15T11:44:25.576Z,1580
2018-03-15T11:45:25.871Z,1140
2018-03-15T11:46:25.548Z,1300
2018-03-15T11:47:27.406Z,1708
2018-03-15T11:48:25.937Z,1452
2018-03-15T11:49:25.618Z,2148
2018-03-15T11:50:25.646Z,2092
2018-03-15T11:51:25.645Z,1940
2018-03-15T11:52:25.947Z,984
2018-03-15T11:53:25.684Z,1232
2018-03-15T11:54:25.686Z,1972
2018-03-15T11:55:27.442Z,1580
2018-03-15T11:56:25.731Z,1856
2018-03-15T11:57:25.741Z,2224
2018-03-15T11:58:25.774Z,2180
2018-03-15T11:59:25.768Z,1872
2018-03-15T12:00:26.157Z,2024
2018-03-15T12:01:26.125Z,2300
2018-03-15T12:02:26.673Z,2368
2018-03-15T12:03:26.739Z,2220
2018-03-15T12:04:25.866Z,2032
2018-03-15T12:05:25.582Z,2584
2018-03-15T12:06:25.894Z,2292
2018-03-15T12:07:26.193Z,1356
2018-03-15T12:08:26.279Z,1472
2018-03-15T12:09:25.644Z,1912
2018-03-15T12:10:26.700Z,2560
2018-03-15T12:11:25.680Z,2360
2018-03-15T12:12:25.702Z,2052
2018-03-15T12:13:26.370Z,2452
2018-03-15T12:14:26.339Z,2488
2018-03-15T12:15:26.335Z,2280
2018-03-15T12:16:26.048Z,2160
2018-03-15T12:17:25.768Z,2412
2018-03-15T12:18:26.073Z,2336
2018-03-15T12:19:26.087Z,2248
2018-03-15T12:20:26.107Z,2192
2018-03-15T12:21:26.122Z,2288
2018-03-15T12:22:25.864Z,2584
2018-03-15T12:23:26.494Z,2688
2018-03-15T12:24:25.628Z,2336
2018-03-15T12:25:26.192Z,2284
2018-03-15T12:26:25.929Z,2112
2018-03-15T12:27:26.505Z,1912
2018-03-15T12:28:26.289Z,2168
2018-03-15T12:29:26.258Z,2400
2018-03-15T12:30:26.561Z,2284
2018-03-15T12:31:26.684Z,2208
2018-03-15T12:32:26.368Z,2216
2018-03-15T12:33:26.388Z,2724
2018-03-15T12:34:26.645Z,2896
2018-03-15T12:35:26.652Z,2760
2018-03-15T12:36:26.385Z,2780
2018-03-15T12:37:26.397Z,2856
2018-03-15T12:38:26.186Z,2616
2018-03-15T12:39:26.719Z,2592
2018-03-15T12:40:26.741Z,2480
2018-03-15T12:41:26.768Z,2676
2018-03-15T12:42:26.494Z,2612
2018-03-15T12:43:26.223Z,2536
2018-03-15T12:44:26.849Z,2548
2018-03-15T12:45:26.257Z,2588
2018-03-15T12:46:26.558Z,2732
2018-03-15T12:47:26.863Z,2476
2018-03-15T12:48:26.885Z,2688
2018-03-15T12:49:26.330Z,2788
2018-03-15T12:50:26.697Z,2924
2018-03-15T12:51:26.934Z,2796
2018-03-15T12:52:26.383Z,2404
2018-03-15T12:53:26.736Z,2312
2018-03-15T12:54:26.698Z,2652
2018-03-15T12:55:26.731Z,2584
2018-03-15T12:56:27.021Z,2724
2018-03-15T12:57:26.858Z,2896
2018-03-15T12:58:26.488Z,2728
2018-03-15T12:59:26.792Z,2044
2018-03-15T13:00:26.908Z,1588
2018-03-15T13:01:27.116Z,1628
2018-03-15T13:02:26.842Z,2088
2018-03-15T13:03:26.871Z,2428
2018-03-15T13:04:26.880Z,2548
2018-03-15T13:05:26.899Z,2308
2018-03-15T13:06:26.915Z,1828
2018-03-15T13:07:27.215Z,2208
2018-03-15T13:08:27.234Z,2440
2018-03-15T13:09:26.689Z,1980
2018-03-15T13:10:27.267Z,1532
2018-03-15T13:11:27.286Z,1656
2018-03-15T13:12:27.016Z,1436
2018-03-15T13:13:26.754Z,1584
2018-03-15T13:14:27.063Z,1856
2018-03-15T13:15:27.353Z,1940
2018-03-15T13:16:27.091Z,1780
2018-03-15T13:17:27.402Z,1560
2018-03-15T13:18:27.130Z,2108
2018-03-15T13:19:27.145Z,1740
2018-03-15T13:20:27.161Z,1240
2018-03-15T13:21:27.465Z,1176
2018-03-15T13:22:27.487Z,1472
2018-03-15T13:23:27.267Z,1752
2018-03-15T13:24:27.512Z,1764
2018-03-15T13:25:26.705Z,2016
2018-03-15T13:26:27.263Z,1692
2018-03-15T13:27:27.579Z,1568
2018-03-15T13:28:27.676Z,1864
2018-03-15T13:29:27.038Z,1808
2018-03-15T13:30:27.623Z,2124
2018-03-15T13:31:27.354Z,2408
2018-03-15T13:32:27.376Z,2692
2018-03-15T13:33:27.679Z,2448
2018-03-15T13:34:27.488Z,2260
2018-03-15T13:35:27.717Z,2656
2018-03-15T13:36:27.729Z,2444
2018-03-15T13:37:27.184Z,1732
2018-03-15T13:38:27.794Z,2340
2018-03-15T13:39:27.782Z,2268
2018-03-15T13:40:27.800Z,2516
2018-03-15T13:41:27.538Z,2236
2018-03-15T13:42:27.849Z,2212
2018-03-15T13:43:27.308Z,2524
2018-03-15T13:44:27.744Z,2152
2018-03-15T13:45:27.891Z,2292
2018-03-15T13:46:27.618Z,2148
2018-03-15T13:47:27.922Z,2152
2018-03-15T13:48:27.706Z,2344
2018-03-15T13:49:27.684Z,2128
2018-03-15T13:50:27.692Z,1828
2018-03-15T13:51:27.707Z,2188
2018-03-15T13:52:28.020Z,1632
2018-03-15T13:53:28.029Z,1268
2018-03-15T13:54:28.046Z,1244
2018-03-15T13:55:27.499Z,1248
2018-03-15T13:56:27.802Z,1276
2018-03-15T13:57:27.823Z,1312
2018-03-15T13:58:28.184Z,1312
2018-03-15T13:59:27.860Z,1532
2018-03-15T14:00:28.153Z,1728
2018-03-15T14:01:27.896Z,1524